Aérodrome :
LOGIN :

S'inscrire | Disclaimer

   EN    FR    IT 

 










Légende :    VFR   VFR Marginal   IFR   IFR Intensif   IFR Très Intensif
Visi : 
Plafond : 
>= 8 km
>= 3000ft
5 à 8 km
1000 à 3000 ft
1500m à 5 km
500 à 1000 ft
800 à 1500m
200 à 500 ft
< 800m
< 200 ft
Symboles :   Orages  Brouillard  Fortes neiges  Fortes précipitations  Vent > 20 kt
SIGMETs :   Divers  Orages  Givrage  Turbulence  Onde Orograph.  Cendres Volcan.






- Altitude de l'aérodrome : 352 ft
- Code IATA : ARW


LRAR - Arad International

DERNIER METAR :
  • 241400Z 33013KT 300V010 CAVOK 12/M05 Q1020

METARs EXPIRÉS :
  • 241330Z 33012KT CAVOK 12/M04 Q1020
  • 241300Z 32014KT CAVOK 12/M06 Q1020
  • 241230Z 30016KT CAVOK 12/M05 Q1020
  • 241200Z 31015KT CAVOK 12/M05 Q1020
  • 241130Z 31017KT 280V340 CAVOK 12/M04 Q1020

TAF TAF LRAR
Valide du 24 à 12h jusqu'au 24 à 21h UTC


241100Z 2412/2421 33020KT CAVOK
TEMPO 2412/2414 33020G30KT
BECMG 2414/2416 31010KT



MET'MAP, la Météo Aéronautique d'un coup d'oeil ! - Copyright ORBIFLY Décembre 2007 - Disclaimer

ORBIFLY MET'MAP TEAM :

Programmation & Développement : Alexandra Zaïnal
Sur une idée originale de : Baudouin d'Aumeries
Assistance à la programmation : Marc-Olivier Méhu
Soutien technique & logistique : Manuel Goepfert

Contact : metmap@orbifly.com




SOURCES & CREDITS :

   NOAA